Airfield :
LOGIN :

Register | Disclaimer

   EN    FR    IT 

 










Legend :    VFR   Marginal VFR   IFR   Intensive IFR   Very Intensive IFR
Visi :
Ceiling :
>= 8 km
>= 3000ft
5 to 8 km
1000 to 3000 ft
1500m to 5 km
500 to 1000 ft
800 to 1500m
200 to 500 ft
< 800m
< 200 ft
Symbols :   Thunderstorms  Fog  Heavy snow  Heavy precipitations  Wind > 20 kt
SIGMETs :     Misc.  Thunderstorms  Icing  Turbulence  Mountain Waves  Volcanic Ashes







- Airport Elevation : 3006 ft
- IATA code : LEN


LELN - Leon

CURRENT METAR :
  • 130030Z AUTO 14003KT 090V180 2100 1000SW RA BR SCT002/// 05/05 Q1010

EXPIRED METARs :
  • 130000Z AUTO 09002KT 0250 0200SW R23/0200N R05/0450N -RA FG VV002 04/04 Q1011
  • 122330Z AUTO 09004KT 0250 0200NE R23/0175N R05/0500N FG VV002 04/04 Q1012
  • 122300Z AUTO 08003KT 050V110 0200 0150NE R23/0150N R05/0450N FG VV002 04/04 Q1012
  • 122230Z AUTO 07002KT 0150 R23/0150N R05/0400N FG VV001 04/04 Q1013

TAF TAF LELN
Valid from the 12 at 18:00 until the 13 at 03:00 UTC


121700Z 1218/1303 VRB04KT 0300 FG VV002
TEMPO 1221/1303 2000 BR RA BKN004
PROB30
TEMPO 1221/1303 OVC001
No reported NOTAMs for that airfield.
2 SIGMETs reported for the Madrid FIR (LECM) :
 
Severe icing
LECM SIGMET 2 VALID 122352/130300 LEVA
LECM MADRID FIR/UIR SEV ICE OBS AT 2352Z WI N40 W006 - N40 W004 - N41 W004 - N4110 W006 - N40 W006 FL240/260 STNR NC=
Severe turbulence
LECM SIGMET 1 VALID 130000/130400 LEVA
LECM MADRID FIR SEV TURB FCST W OF LINE N4450 W00640 - N42 W00650 SFC/FL220 MOV E NC=



MET'MAP, your aeronautical weather chart ! - Copyright ORBIFLY December 2007 - Disclaimer

ORBIFLY MET'MAP TEAM :

Programming & Development : Alexandra Zaïnal
Concept & Development : Baudouin d'Aumeries
Co-Development & Prog : Marc-Olivier Méhu
Technical & hardware support : Manuel Goepfert

Contact : metmap@orbifly.com




SOURCES & CREDITS :

   NOAA